createdAt,value
2023-02-11T00:01:34.155Z,0.76
2023-02-11T00:05:42.208Z,0.80
2023-02-11T00:09:49.669Z,0.83
2023-02-11T00:13:57.785Z,0.85
2023-02-11T00:18:05.421Z,0.85
2023-02-11T00:22:13.514Z,0.84
2023-02-11T00:26:24.005Z,0.84
2023-02-11T00:30:31.584Z,0.86
2023-02-11T00:34:41.419Z,0.90
2023-02-11T00:38:50.204Z,0.95
2023-02-11T00:42:59.046Z,0.99
2023-02-11T00:47:07.131Z,1.00
2023-02-11T00:51:15.356Z,1.01
2023-02-11T00:55:23.273Z,1.01
2023-02-11T00:59:31.427Z,1.00
2023-02-11T01:03:39.704Z,0.99
2023-02-11T01:07:47.266Z,0.96
2023-02-11T01:11:54.822Z,0.93
2023-02-11T01:16:03.716Z,0.92
2023-02-11T01:20:17.008Z,0.95
2023-02-11T01:24:25.147Z,0.99
2023-02-11T01:28:33.636Z,1.04
2023-02-11T01:32:42.047Z,1.06
2023-02-11T01:36:49.882Z,1.06
2023-02-11T01:41:00.073Z,1.03
2023-02-11T01:45:53.865Z,1.00
2023-02-11T01:50:04.312Z,0.95
2023-02-11T01:54:31.160Z,0.88
2023-02-11T01:58:42.715Z,0.84
2023-02-11T02:02:54.310Z,0.82
2023-02-11T02:07:07.609Z,0.84
2023-02-11T02:11:17.285Z,0.88
2023-02-11T02:15:31.227Z,0.95
2023-02-11T02:19:57.744Z,0.97
2023-02-11T02:24:32.757Z,0.97
2023-02-11T02:28:58.866Z,0.96
2023-02-11T02:33:23.884Z,0.93
2023-02-11T02:37:35.964Z,0.89
2023-02-11T02:41:45.789Z,0.86
2023-02-11T02:45:53.240Z,0.85
2023-02-11T02:50:00.983Z,0.84
2023-02-11T02:54:25.192Z,0.88
2023-02-11T02:58:57.033Z,0.94
2023-02-11T03:03:16.912Z,0.99
2023-02-11T03:07:29.325Z,1.03
2023-02-11T03:11:37.841Z,1.03
2023-02-11T03:15:49.743Z,1.00
2023-02-11T03:19:58.374Z,0.97
2023-02-11T03:24:10.544Z,0.92
2023-02-11T03:28:26.584Z,0.88
2023-02-11T03:32:37.099Z,0.85
2023-02-11T03:36:48.439Z,0.87
2023-02-11T03:40:58.160Z,0.93
2023-02-11T03:45:12.898Z,1.00
2023-02-11T03:49:22.853Z,1.09
2023-02-11T03:53:30.501Z,1.15
2023-02-11T03:57:38.242Z,1.20
2023-02-11T04:01:46.374Z,1.21
2023-02-11T04:05:54.302Z,1.21
2023-02-11T04:10:03.040Z,1.20
2023-02-11T04:14:11.008Z,1.18
2023-02-11T04:18:18.872Z,1.16
2023-02-11T04:22:26.873Z,1.15
2023-02-11T04:26:36.054Z,1.17
2023-02-11T04:30:44.040Z,1.21
2023-02-11T04:34:52.047Z,1.28
2023-02-11T04:38:59.813Z,1.32
2023-02-11T04:43:07.470Z,1.35
2023-02-11T04:47:15.980Z,1.36
2023-02-11T04:51:23.727Z,1.33
2023-02-11T04:55:31.860Z,1.28
2023-02-11T04:59:40.867Z,1.23
2023-02-11T05:03:48.853Z,1.21
2023-02-11T05:07:56.381Z,1.18
2023-02-11T05:12:04.578Z,1.17
2023-02-11T05:16:12.080Z,1.18
2023-02-11T05:20:19.802Z,1.19
2023-02-11T05:24:27.544Z,1.24
2023-02-11T05:28:35.476Z,1.32
2023-02-11T05:32:43.440Z,1.40
2023-02-11T05:36:53.546Z,1.46
2023-02-11T05:41:01.378Z,1.49
2023-02-11T05:45:09.738Z,1.52
2023-02-11T05:49:17.105Z,1.54
2023-02-11T05:53:24.646Z,1.55
2023-02-11T05:57:32.325Z,1.57
2023-02-11T06:01:40.112Z,1.59
2023-02-11T06:05:48.342Z,1.61
2023-02-11T06:09:56.480Z,1.62
2023-02-11T06:14:04.294Z,1.62
2023-02-11T06:18:11.759Z,1.64
2023-02-11T06:22:19.641Z,1.64
2023-02-11T06:26:27.233Z,1.66
2023-02-11T06:30:35.814Z,1.71
2023-02-11T06:34:43.994Z,1.77
2023-02-11T06:38:52.376Z,1.84
2023-02-11T06:43:00.072Z,1.86
2023-02-11T06:47:07.576Z,1.87
2023-02-11T06:51:15.985Z,1.87
2023-02-11T06:55:23.873Z,1.89
2023-02-11T06:59:31.422Z,1.92
2023-02-11T07:03:44.036Z,1.94
2023-02-11T07:07:52.520Z,1.97
2023-02-11T07:12:00.245Z,2.01
2023-02-11T07:16:10.271Z,2.06
2023-02-11T07:20:18.305Z,2.10
2023-02-11T07:24:26.421Z,2.14
2023-02-11T07:28:35.154Z,2.21
2023-02-11T07:32:43.654Z,2.30
2023-02-11T07:36:52.081Z,2.41
2023-02-11T07:41:04.653Z,2.52
2023-02-11T07:45:14.098Z,2.61
2023-02-11T07:49:22.274Z,2.67
2023-02-11T07:53:30.115Z,2.73
2023-02-11T07:57:38.056Z,2.78
2023-02-11T08:01:46.066Z,2.82
2023-02-11T08:05:54.212Z,2.86
2023-02-11T08:10:01.598Z,2.89
2023-02-11T08:14:09.244Z,2.93
2023-02-11T08:18:16.711Z,2.96
2023-02-11T08:22:25.827Z,3.02
2023-02-11T08:26:35.781Z,3.08
2023-02-11T08:30:43.442Z,3.16
2023-02-11T08:34:53.830Z,3.22
2023-02-11T08:39:17.950Z,3.27
2023-02-11T08:43:27.318Z,3.30
2023-02-11T08:47:35.089Z,3.35
2023-02-11T08:51:43.623Z,3.43
2023-02-11T08:55:54.253Z,3.61
2023-02-11T09:00:02.246Z,3.81
2023-02-11T09:04:10.771Z,3.96
2023-02-11T09:08:19.402Z,4.09
2023-02-11T09:12:26.991Z,4.24
2023-02-11T09:16:36.556Z,4.38
2023-02-11T09:20:44.557Z,4.46
2023-02-11T09:24:52.618Z,4.53
2023-02-11T09:29:01.302Z,4.61
2023-02-11T09:33:09.118Z,4.75
2023-02-11T09:37:16.605Z,4.94
2023-02-11T09:41:51.196Z,5.12
2023-02-11T09:45:59.448Z,5.24
2023-02-11T09:50:12.226Z,5.29
2023-02-11T09:54:25.198Z,5.34
2023-02-11T09:58:34.729Z,5.39
2023-02-11T10:02:53.195Z,5.42
2023-02-11T10:07:03.930Z,5.45
2023-02-11T10:11:30.693Z,5.49
2023-02-11T10:15:46.962Z,5.57
2023-02-11T10:20:06.727Z,5.64
2023-02-11T10:24:16.144Z,5.68
2023-02-11T10:28:26.014Z,5.70
2023-02-11T10:32:41.006Z,5.70
2023-02-11T10:36:49.411Z,5.75
2023-02-11T10:40:57.390Z,5.81
2023-02-11T10:45:07.822Z,5.87
2023-02-11T10:49:40.005Z,5.93
2023-02-11T10:53:48.619Z,5.99
2023-02-11T10:58:03.864Z,6.04
2023-02-11T11:02:25.005Z,6.10
2023-02-11T11:06:34.537Z,6.14
2023-02-11T11:10:46.939Z,6.13
2023-02-11T11:14:58.341Z,6.05
2023-02-11T11:19:26.514Z,5.97
2023-02-11T11:23:34.599Z,5.94
2023-02-11T11:27:43.597Z,5.96
2023-02-11T11:31:57.216Z,6.00
2023-02-11T11:36:09.833Z,6.01
2023-02-11T11:40:27.545Z,6.04
2023-02-11T11:44:37.406Z,6.08
2023-02-11T11:48:47.934Z,6.11
2023-02-11T11:53:01.442Z,6.18
2023-02-11T11:57:16.596Z,6.25
2023-02-11T12:01:35.715Z,6.33
2023-02-11T12:05:47.521Z,6.38
2023-02-11T12:10:11.695Z,6.40
2023-02-11T12:14:25.756Z,6.40
2023-02-11T12:19:05.629Z,6.37
2023-02-11T12:23:32.641Z,6.39
2023-02-11T12:27:48.624Z,6.45
2023-02-11T12:32:14.740Z,6.48
2023-02-11T12:36:34.900Z,6.48
2023-02-11T12:40:47.041Z,6.47
2023-02-11T12:45:09.267Z,6.45
2023-02-11T12:49:31.162Z,6.44
2023-02-11T12:53:54.312Z,6.44
2023-02-11T12:58:03.889Z,6.42
2023-02-11T13:02:21.271Z,6.37
2023-02-11T13:06:32.936Z,6.35
2023-02-11T13:10:41.936Z,6.37
2023-02-11T13:14:51.807Z,6.40
2023-02-11T13:19:08.134Z,6.39
2023-02-11T13:23:21.130Z,6.36
2023-02-11T13:27:40.582Z,6.33
2023-02-11T13:32:07.960Z,6.32
2023-02-11T13:36:21.464Z,6.34
2023-02-11T13:40:31.809Z,6.36
2023-02-11T13:44:40.170Z,6.38
2023-02-11T13:48:53.065Z,6.36
2023-02-11T13:53:04.226Z,6.32
2023-02-11T13:57:40.544Z,6.28
2023-02-11T14:02:22.941Z,6.29
2023-02-11T14:07:02.691Z,6.28
2023-02-11T14:11:27.731Z,6.29
2023-02-11T14:15:42.338Z,6.29
2023-02-11T14:19:52.378Z,6.25
2023-02-11T14:24:40.924Z,6.25
2023-02-11T14:28:52.054Z,6.27
2023-02-11T14:33:35.937Z,6.29
2023-02-11T14:37:50.836Z,6.28
2023-02-11T14:41:58.897Z,6.26
2023-02-11T14:46:07.897Z,6.23
2023-02-11T14:50:23.169Z,6.22
2023-02-11T14:54:31.634Z,6.23
2023-02-11T14:58:40.305Z,6.20
2023-02-11T15:02:48.695Z,6.16
2023-02-11T15:07:01.730Z,6.11
2023-02-11T15:11:13.989Z,6.07
2023-02-11T15:15:21.672Z,6.03
2023-02-11T15:19:34.533Z,5.99
2023-02-11T15:23:45.368Z,5.93
2023-02-11T15:27:57.435Z,5.90
2023-02-11T15:32:13.874Z,5.84
2023-02-11T15:36:28.071Z,5.77
2023-02-11T15:40:37.291Z,5.72
2023-02-11T15:44:45.698Z,5.69
2023-02-11T15:48:55.127Z,5.65
2023-02-11T15:53:04.990Z,5.61
2023-02-11T15:57:13.406Z,5.56
2023-02-11T16:01:21.530Z,5.51
2023-02-11T16:05:37.874Z,5.45
2023-02-11T16:09:46.296Z,5.41
2023-02-11T16:13:55.416Z,5.38
2023-02-11T16:18:03.633Z,5.36
2023-02-11T16:22:16.060Z,5.34
2023-02-11T16:26:30.937Z,5.34
2023-02-11T16:30:41.120Z,5.32
2023-02-11T16:34:49.218Z,5.29
2023-02-11T16:38:57.733Z,5.28
2023-02-11T16:43:05.910Z,5.26
2023-02-11T16:47:27.202Z,5.26
2023-02-11T16:51:34.989Z,5.26
2023-02-11T16:55:42.692Z,5.28
2023-02-11T16:59:50.534Z,5.29
2023-02-11T17:03:58.396Z,5.32
2023-02-11T17:08:07.516Z,5.35
2023-02-11T17:12:16.229Z,5.38
2023-02-11T17:16:26.761Z,5.41
2023-02-11T17:20:35.718Z,5.41
2023-02-11T17:24:45.042Z,5.40
2023-02-11T17:28:53.026Z,5.40
2023-02-11T17:33:01.089Z,5.42
2023-02-11T17:37:10.528Z,5.44
2023-02-11T17:41:18.780Z,5.46
2023-02-11T17:45:26.582Z,5.47
2023-02-11T17:49:34.932Z,5.48
2023-02-11T17:53:43.302Z,5.49
2023-02-11T17:57:51.070Z,5.49
2023-02-11T18:01:58.767Z,5.48
2023-02-11T18:06:08.821Z,5.46
2023-02-11T18:10:17.068Z,5.43
2023-02-11T18:14:25.787Z,5.41
2023-02-11T18:18:36.189Z,5.40
2023-02-11T18:22:44.624Z,5.37
2023-02-11T18:26:52.241Z,5.33
2023-02-11T18:31:03.758Z,5.29
2023-02-11T18:35:15.279Z,5.25
2023-02-11T18:39:26.587Z,5.24
2023-02-11T18:43:34.637Z,5.23
2023-02-11T18:47:42.672Z,5.24
2023-02-11T18:51:50.498Z,5.24
2023-02-11T18:55:58.050Z,5.23
2023-02-11T19:00:06.984Z,5.24
2023-02-11T19:04:20.331Z,5.24
2023-02-11T19:08:28.358Z,5.24
2023-02-11T19:12:39.555Z,5.25
2023-02-11T19:16:48.125Z,5.25
2023-02-11T19:20:56.463Z,5.25
2023-02-11T19:25:04.184Z,5.25
2023-02-11T19:29:12.097Z,5.24
2023-02-11T19:33:19.720Z,5.23
2023-02-11T19:37:27.086Z,5.23
2023-02-11T19:41:35.540Z,5.22
2023-02-11T19:45:43.827Z,5.21
2023-02-11T19:49:55.512Z,5.19
2023-02-11T19:54:03.814Z,5.17
2023-02-11T19:58:12.087Z,5.19
2023-02-11T20:02:20.507Z,5.22
2023-02-11T20:06:31.023Z,5.25
2023-02-11T20:10:40.455Z,5.27
2023-02-11T20:14:48.253Z,5.27
2023-02-11T20:18:57.156Z,5.27
2023-02-11T20:23:05.158Z,5.28
2023-02-11T20:27:12.835Z,5.29
2023-02-11T20:31:22.127Z,5.29
2023-02-11T20:35:29.977Z,5.29
2023-02-11T20:39:42.231Z,5.31
2023-02-11T20:43:52.250Z,5.31
2023-02-11T20:48:02.762Z,5.32
2023-02-11T20:52:10.172Z,5.32
2023-02-11T20:56:20.489Z,5.32
2023-02-11T21:00:28.956Z,5.31
2023-02-11T21:04:39.179Z,5.32
2023-02-11T21:08:47.348Z,5.33
2023-02-11T21:12:55.109Z,5.34
2023-02-11T21:17:02.704Z,5.35
2023-02-11T21:21:10.262Z,5.37
2023-02-11T21:25:18.982Z,5.35
2023-02-11T21:29:27.443Z,5.32
2023-02-11T21:33:35.498Z,5.30
2023-02-11T21:37:43.405Z,5.30
2023-02-11T21:41:52.743Z,5.30
2023-02-11T21:46:00.627Z,5.30
2023-02-11T21:50:09.668Z,5.33
2023-02-11T21:54:19.073Z,5.34
2023-02-11T21:58:27.028Z,5.37
2023-02-11T22:02:34.886Z,5.36
2023-02-11T22:06:43.136Z,5.34
2023-02-11T22:10:50.606Z,5.34
2023-02-11T22:14:58.476Z,5.35
2023-02-11T22:19:07.682Z,5.37
2023-02-11T22:23:15.391Z,5.37
2023-02-11T22:27:23.280Z,5.39
2023-02-11T22:31:33.962Z,5.38
2023-02-11T22:35:42.083Z,5.39
2023-02-11T22:39:49.982Z,5.39
2023-02-11T22:43:58.952Z,5.39
2023-02-11T22:48:08.041Z,5.36
2023-02-11T22:52:17.074Z,5.35
2023-02-11T22:56:25.561Z,5.34
2023-02-11T23:00:37.252Z,5.35
2023-02-11T23:04:45.134Z,5.36
2023-02-11T23:08:52.747Z,5.36
2023-02-11T23:13:00.665Z,5.36
2023-02-11T23:17:11.678Z,5.36
2023-02-11T23:21:21.369Z,5.35
2023-02-11T23:25:29.307Z,5.32
2023-02-11T23:29:37.016Z,5.27
2023-02-11T23:33:46.069Z,5.24
2023-02-11T23:37:54.860Z,5.26
2023-02-11T23:42:02.568Z,5.29
2023-02-11T23:46:10.676Z,5.32
2023-02-11T23:50:22.827Z,5.34
2023-02-11T23:54:31.168Z,5.36
2023-02-11T23:58:39.118Z,5.36
